»·PEaware :: ROU1551 CYYC-CYVR

ROU1551 :: CYYC-CYVR

FLIGHT INFORMATION

Flight Status: Arrived
Operator: Unknown
More flights by this operator :: More flights under this callsign
Pilot: Drew L. (13237)
Aircraft: AIRBUS A320
(A320)
More flights by this aircraft type
Origin: CYYC Calgary Intl
Canada
Destination: CYVR Vancouver Intl
Canada
More flights between these airports :: More routes between these airports
Route: Q894 BOOTH CANUC4
File this flight plan on PilotEdge
Remarks: / L
Altitude:
(Current/Filed)
29,000ft
Speed:
(Current/Filed)
115kts
Departed: 04-Dec-16 12:09 AM
Arrived: 04-Dec-16 01:17 AM
Distance/Time
Traveled:
370nm/1:07
Distance/Time
To Go:
Arrived

Flight Plot

Page will automatically refresh every two minutes.

Flight plan parsing failed; only flown route is shown


Map Options




Map Legend


Flown Route
Filed Route
Departure Airport
Arrival Airport
Navaid (VOR, NDB)
Fix

Horizontal Profiles

Position Reports

Time Latitude Longitude Heading Altitude Ground
Speed
04-Dec-16 00:00 51.096888 -114.021147 294 3565ft 0kts
04-Dec-16 00:01 51.097778 -114.021358 1 3565ft 27kts
04-Dec-16 00:02 51.132231 -114.021349 355 4491ft 185kts
04-Dec-16 00:03 51.188111 -114.072534 291 7538ft 265kts
04-Dec-16 00:04 51.167861 -114.198642 255 9630ft 369kts
04-Dec-16 00:05 51.138829 -114.357003 255 11319ft 333kts
04-Dec-16 00:06 51.112147 -114.499009 255 14232ft 340kts
04-Dec-16 00:07 51.083880 -114.645008 256 16487ft 351kts
04-Dec-16 00:08 51.054436 -114.794319 256 18333ft 358kts
04-Dec-16 00:09 51.024225 -114.945371 256 19880ft 363kts
04-Dec-16 00:10 50.993836 -115.097672 256 21560ft 361kts
04-Dec-16 00:11 50.965094 -115.250480 256 23233ft 362kts
04-Dec-16 00:12 50.936189 -115.404243 256 24773ft 366kts
04-Dec-16 00:13 50.906869 -115.554655 256 26180ft 370kts
04-Dec-16 00:14 50.876136 -115.706152 256 27439ft 374kts
04-Dec-16 00:15 50.843231 -115.863592 257 28449ft 379kts
04-Dec-16 00:16 50.834754 -116.026148 260 29274ft 381kts
04-Dec-16 00:17 50.806545 -116.188464 259 30354ft 389kts
04-Dec-16 00:18 50.776086 -116.353947 259 31933ft 393kts
04-Dec-16 00:19 50.742721 -116.519778 258 31938ft 398kts
04-Dec-16 00:20 50.709898 -116.686923 259 31937ft 398kts
04-Dec-16 00:21 50.677626 -116.850329 258 31945ft 398kts
04-Dec-16 00:22 50.644659 -117.015867 259 31945ft 392kts
04-Dec-16 00:23 50.612532 -117.177904 258 31949ft 387kts
04-Dec-16 00:24 50.579943 -117.339605 258 31947ft 388kts
04-Dec-16 00:25 50.546995 -117.501020 258 31948ft 387kts
04-Dec-16 00:26 50.513849 -117.662052 258 31946ft 388kts
04-Dec-16 00:27 50.480451 -117.822974 258 31945ft 388kts
04-Dec-16 00:28 50.447175 -117.982045 258 31945ft 388kts
04-Dec-16 00:29 50.413432 -118.142262 257 31946ft 388kts
04-Dec-16 00:30 50.379648 -118.302906 257 31946ft 389kts
04-Dec-16 00:31 50.345327 -118.463232 257 31946ft 388kts
04-Dec-16 00:32 50.310818 -118.623077 257 31956ft 388kts
04-Dec-16 00:33 50.276391 -118.781326 257 31986ft 388kts
04-Dec-16 00:34 50.241605 -118.939984 257 31989ft 383kts
04-Dec-16 00:35 50.207108 -119.096130 257 31990ft 380kts
04-Dec-16 00:36 50.173146 -119.251102 256 31992ft 380kts
04-Dec-16 00:37 50.138221 -119.407130 256 31993ft 381kts
04-Dec-16 00:38 50.103147 -119.562398 257 31990ft 381kts
04-Dec-16 00:39 50.067730 -119.718037 257 31991ft 381kts
04-Dec-16 00:40 50.032227 -119.872933 257 31988ft 380kts
04-Dec-16 00:41 49.996474 -120.027755 257 31981ft 381kts
04-Dec-16 00:42 49.960865 -120.182745 256 31972ft 381kts
04-Dec-16 00:43 49.924754 -120.337521 256 31742ft 383kts
04-Dec-16 00:44 49.889117 -120.488581 255 29994ft 371kts
04-Dec-16 00:45 49.853936 -120.636678 255 28208ft 362kts
04-Dec-16 00:46 49.820157 -120.777933 254 26439ft 352kts
04-Dec-16 00:47 49.786339 -120.918431 254 24624ft 345kts
04-Dec-16 00:48 49.752945 -121.056358 253 22794ft 341kts
04-Dec-16 00:49 49.720047 -121.193238 251 21013ft 343kts
04-Dec-16 00:50 49.692196 -121.307295 250 20073ft 340kts
04-Dec-16 00:51 49.658582 -121.443725 250 18823ft 338kts
04-Dec-16 00:52 49.625130 -121.578579 249 17428ft 335kts
04-Dec-16 00:53 49.591823 -121.712053 249 16023ft 330kts
04-Dec-16 00:54 49.560252 -121.837851 249 14596ft 307kts
04-Dec-16 00:55 49.529458 -121.959897 249 13868ft 306kts
04-Dec-16 00:56 49.498630 -122.081390 249 13482ft 298kts
04-Dec-16 00:57 49.467891 -122.194084 234 12278ft 282kts
04-Dec-16 00:58 49.424178 -122.292977 237 10863ft 277kts
04-Dec-16 00:59 49.379154 -122.387372 228 9919ft 275kts
04-Dec-16 01:00 49.328403 -122.474792 228 9917ft 272kts
04-Dec-16 01:01 49.278569 -122.558865 227 8384ft 268kts
04-Dec-16 01:02 49.229440 -122.642625 227 6580ft 258kts
04-Dec-16 01:03 49.189499 -122.727498 238 4909ft 229kts
04-Dec-16 01:04 49.161757 -122.808137 264 3911ft 214kts
04-Dec-16 01:05 49.170025 -122.892824 276 3060ft 198kts
04-Dec-16 01:06 49.178928 -122.972987 276 2238ft 176kts
04-Dec-16 01:07 49.186323 -123.037336 276 1557ft 145kts
04-Dec-16 01:08 49.193133 -123.096306 276 881ft 139kts
04-Dec-16 01:09 49.199991 -123.154834 274 135ft 143kts
04-Dec-16 01:10 49.202910 -123.185000 256 22ft 18kts
04-Dec-16 01:11 49.201781 -123.189839 238 22ft 11kts
04-Dec-16 01:12 49.196728 -123.180522 126 22ft 69kts
04-Dec-16 01:13 49.195954 -123.179285 142 22ft 0kts
04-Dec-16 01:14 49.195954 -123.179285 142 22ft 0kts

Navigation Log

Ident Type
Flight plan parsing failed, navigation log unavailable